메인 페이지
METAR-TAF:

METAR-TAF

공항 :

히베이랑프레투, 상파울루, 브라질

위도: 21-08S, 경도: 047-47W, 고도: 549m

현재 날씨관측

예보는 30분 전, 09:00시(UTC)에 발표되었습니다.
4kt
온도 22°C
습도 94%
기압 1015 hPa
시정: 8000m
고도 800ft 상공 구름 보통
고도 10000ft 상공 구름 보통

METAR: SBRP 010900Z 10004KT 8000 SCT008 SCT100 22/21 Q1015

시각: 07:30 (09:30 UTC)

예보

예보는 5 시간 45분 전, 03:45시(UTC)에 발표되었습니다.
예보 대상 시간: 01일 06시부터 01일 18시까지 (UTC)
2kt
시정: 8000m
고도 1800ft 상공 구름 조금
전환 중
01일 08시부터 01일 10시까지 (UTC)
남동4kt
전환 중
01일 12시부터 01일 14시까지 (UTC)
4kt
전환 중
01일 14시부터 01일 16시까지 (UTC)
북북동4kt
고도 2500ft 상공 구름 조금
전환 중
01일 16시부터 01일 18시까지 (UTC)
북서7kt

TAF: SBRP 010345Z 0106/0118 10002KT 8000 FEW018 TN21/0109Z TX32/0118Z BECMG 0108/0110 13004KT BECMG 0112/0114 09004KT BECMG 0114/0116 02004KT FEW025 BECMG 0116/0118 32007KT RMK PGM

4,000개 이상의 공항 관측 자료 및 예보 (METAR 및 TAF 보고).

지도상에서 검색 가능한 기상관측소가 노란 점과 빨간 점으로 표시되어 있습니다.

기상관측소 명을 보려면 표시 위로 마우스를 이동하세요.

날씨 관측과 예보를 보려면 클릭하세요.

지도 변경 : 확대하려면 엑스 표시가 있는 녹색 버튼, 축소하려면 빼기 표시가 있는 녹색 버튼, 다음 페이지의 지도를 보려면 녹색 화살표를 클릭하세요.


METAR-TAF: